createdAt,value
2019-04-26T00:02:25.555Z,91.98
2019-04-26T00:04:56.339Z,91.51
2019-04-26T00:07:25.535Z,91.14
2019-04-26T00:09:55.988Z,92.27
2019-04-26T00:12:42.670Z,92.55
2019-04-26T00:15:29.737Z,92.02
2019-04-26T00:18:00.267Z,92.67
2019-04-26T00:20:30.877Z,92.62
2019-04-26T00:23:00.119Z,92.92
2019-04-26T00:25:29.317Z,93.68
2019-04-26T00:27:58.502Z,94.06
2019-04-26T00:30:27.671Z,94.97
2019-04-26T00:32:56.838Z,95.17
2019-04-26T00:35:26.088Z,95.59
2019-04-26T00:37:55.289Z,95.74
2019-04-26T00:40:24.596Z,96.23
2019-04-26T00:42:57.517Z,96.87
2019-04-26T00:45:29.986Z,97.89
2019-04-26T00:48:00.057Z,97.27
2019-04-26T00:50:30.316Z,97.42
2019-04-26T00:53:02.233Z,97.50
2019-04-26T00:55:34.791Z,97.20
2019-04-26T00:58:05.615Z,97.63
2019-04-26T01:00:34.832Z,97.37
2019-04-26T01:03:04.251Z,97.29
2019-04-26T01:05:35.065Z,97.83
2019-04-26T01:08:04.604Z,98.01
2019-04-26T01:10:33.758Z,97.75
2019-04-26T01:13:02.974Z,96.56
2019-04-26T01:15:33.216Z,96.03
2019-04-26T01:18:02.355Z,96.00
2019-04-26T01:20:34.728Z,96.53
2019-04-26T01:23:07.022Z,97.00
2019-04-26T01:25:59.212Z,96.75
2019-04-26T01:28:36.210Z,96.51
2019-04-26T01:31:09.144Z,96.29
2019-04-26T01:33:39.803Z,96.16
2019-04-26T01:36:13.054Z,95.99
2019-04-26T01:38:40.246Z,97.45
2019-04-26T01:41:16.298Z,98.39
2019-04-26T01:44:12.042Z,98.57
2019-04-26T01:46:44.258Z,99.08
2019-04-26T01:49:15.457Z,99.78
2019-04-26T01:51:53.575Z,99.70
2019-04-26T01:54:26.007Z,100.00
2019-04-26T01:56:59.239Z,99.71
2019-04-26T01:59:29.501Z,99.36
2019-04-26T02:02:13.085Z,99.69
2019-04-26T02:04:44.975Z,100.00
2019-04-26T02:07:17.504Z,100.00
2019-04-26T02:09:46.825Z,99.21
2019-04-26T02:12:16.066Z,98.51
2019-04-26T02:14:45.273Z,98.78
2019-04-26T02:17:14.440Z,98.06
2019-04-26T02:19:43.613Z,96.90
2019-04-26T02:22:27.777Z,97.47
2019-04-26T02:24:57.072Z,97.48
2019-04-26T02:27:30.392Z,96.88
2019-04-26T02:30:01.038Z,95.86
2019-04-26T02:32:31.422Z,96.12
2019-04-26T02:35:02.266Z,95.31
2019-04-26T02:37:32.779Z,96.10
2019-04-26T02:40:03.734Z,95.36
2019-04-26T02:42:38.735Z,95.55
2019-04-26T02:45:47.889Z,95.43
2019-04-26T02:48:38.790Z,93.96
2019-04-26T02:51:12.957Z,92.80
2019-04-26T02:54:08.685Z,92.34
2019-04-26T02:56:41.304Z,93.40
2019-04-26T02:59:43.758Z,93.59
2019-04-26T03:02:25.152Z,93.49
2019-04-26T03:05:01.790Z,94.48
2019-04-26T03:07:58.640Z,95.14
2019-04-26T03:10:35.943Z,95.73
2019-04-26T03:13:08.266Z,95.61
2019-04-26T03:16:06.560Z,95.57
2019-04-26T03:18:52.433Z,94.77
2019-04-26T03:21:32.002Z,93.39
2019-04-26T03:24:07.548Z,93.62
2019-04-26T03:26:46.702Z,93.51
2019-04-26T03:29:34.865Z,94.33
2019-04-26T03:32:48.751Z,94.33
2019-04-26T03:35:54.451Z,93.80
2019-04-26T03:38:33.842Z,93.36
2019-04-26T03:41:15.997Z,93.86
2019-04-26T03:44:13.064Z,94.73
2019-04-26T03:46:53.301Z,94.45
2019-04-26T03:49:54.555Z,93.74
2019-04-26T03:52:35.294Z,94.50
2019-04-26T03:55:09.131Z,94.36
2019-04-26T03:57:49.682Z,94.12
2019-04-26T04:00:37.175Z,94.69
2019-04-26T04:03:45.400Z,94.52
2019-04-26T04:06:19.987Z,94.84
2019-04-26T04:08:58.064Z,94.86
2019-04-26T04:11:36.414Z,94.10
2019-04-26T04:14:12.907Z,95.40
2019-04-26T04:17:18.679Z,96.35
2019-04-26T04:21:05.374Z,96.21
2019-04-26T04:24:18.612Z,96.30
2019-04-26T04:27:15.331Z,95.44
2019-04-26T04:30:16.336Z,95.68
2019-04-26T04:33:25.454Z,94.93
2019-04-26T04:36:02.924Z,94.83
2019-04-26T04:39:12.150Z,93.57
2019-04-26T04:41:57.649Z,92.86
2019-04-26T04:45:46.288Z,91.76
2019-04-26T04:48:25.762Z,90.96
2019-04-26T04:51:17.768Z,91.49
2019-04-26T04:54:05.481Z,91.62
2019-04-26T04:56:47.873Z,91.90
2019-04-26T04:59:27.903Z,91.02
2019-04-26T05:03:09.298Z,91.17
2019-04-26T05:06:08.597Z,90.49
2019-04-26T05:09:12.469Z,90.03
2019-04-26T05:12:06.078Z,90.49
2019-04-26T05:14:57.307Z,91.60
2019-04-26T05:18:03.158Z,92.56
2019-04-26T05:20:46.040Z,93.33
2019-04-26T05:24:11.274Z,94.65
2019-04-26T05:27:38.636Z,95.50
2019-04-26T05:30:25.632Z,96.64
2019-04-26T05:33:30.068Z,97.73
2019-04-26T05:36:34.860Z,98.46
2019-04-26T05:39:24.546Z,99.41
2019-04-26T05:42:38.283Z,100.00
2019-04-26T05:46:20.629Z,100.00
2019-04-26T05:49:37.217Z,100.00
2019-04-26T05:52:43.732Z,100.00
2019-04-26T05:56:33.992Z,100.00
2019-04-26T05:59:36.342Z,100.00
2019-04-26T06:03:03.596Z,100.00
2019-04-26T06:06:11.838Z,100.00
2019-04-26T06:09:34.693Z,100.00
2019-04-26T06:12:25.935Z,100.00
2019-04-26T06:15:43.090Z,100.00
2019-04-26T06:18:55.667Z,100.00
2019-04-26T06:22:02.162Z,100.00
2019-04-26T06:24:50.211Z,100.00
2019-04-26T06:28:02.825Z,100.00
2019-04-26T06:30:57.270Z,100.00
2019-04-26T06:34:03.021Z,100.00
2019-04-26T06:36:48.667Z,100.00
2019-04-26T06:39:35.707Z,100.00
2019-04-26T06:42:49.446Z,100.00
2019-04-26T06:45:43.400Z,100.00
2019-04-26T06:48:38.733Z,100.00
2019-04-26T06:51:24.852Z,100.00
2019-04-26T06:54:22.111Z,100.00
2019-04-26T06:57:15.318Z,100.00
2019-04-26T06:59:53.955Z,100.00
2019-04-26T07:02:47.575Z,100.00
2019-04-26T07:05:24.173Z,100.00
2019-04-26T07:08:17.088Z,100.00
2019-04-26T07:11:21.011Z,100.00
2019-04-26T07:14:12.136Z,100.00
2019-04-26T07:16:52.293Z,100.00
2019-04-26T07:19:54.792Z,100.00
2019-04-26T07:23:32.061Z,100.00
2019-04-26T07:26:34.612Z,100.00
2019-04-26T07:29:46.264Z,100.00
2019-04-26T07:32:39.538Z,100.00
2019-04-26T07:35:18.993Z,100.00
2019-04-26T07:38:09.144Z,100.00
2019-04-26T07:41:30.004Z,100.00
2019-04-26T07:44:16.264Z,100.00
2019-04-26T07:47:27.962Z,100.00
2019-04-26T07:50:47.526Z,100.00
2019-04-26T07:53:32.862Z,100.00
2019-04-26T07:56:26.892Z,100.00
2019-04-26T07:59:47.423Z,100.00
2019-04-26T08:02:49.468Z,100.00
2019-04-26T08:05:33.465Z,100.00
2019-04-26T08:08:08.722Z,100.00
2019-04-26T08:10:41.774Z,100.00
2019-04-26T08:13:15.285Z,100.00
2019-04-26T08:15:55.883Z,100.00
2019-04-26T08:18:38.387Z,100.00
2019-04-26T08:21:21.674Z,100.00
2019-04-26T08:24:18.893Z,100.00
2019-04-26T08:26:53.655Z,100.00
2019-04-26T08:29:25.664Z,100.00
2019-04-26T08:31:57.847Z,100.00
2019-04-26T08:34:33.800Z,100.00
2019-04-26T08:37:23.199Z,100.00
2019-04-26T08:39:53.245Z,100.00
2019-04-26T08:42:26.218Z,100.00
2019-04-26T08:45:08.872Z,100.00
2019-04-26T08:47:53.505Z,100.00
2019-04-26T08:50:29.707Z,100.00
2019-04-26T08:53:01.931Z,100.00
2019-04-26T08:55:33.058Z,100.00
2019-04-26T08:58:07.552Z,100.00
2019-04-26T09:00:45.022Z,100.00
2019-04-26T09:03:26.427Z,100.00
2019-04-26T09:06:14.847Z,100.00
2019-04-26T09:08:46.886Z,100.00
2019-04-26T09:11:25.927Z,100.00
2019-04-26T09:13:51.951Z,100.00
2019-04-26T09:16:21.798Z,100.00
2019-04-26T09:18:54.252Z,100.00
2019-04-26T09:21:41.025Z,100.00
2019-04-26T09:24:31.273Z,100.00
2019-04-26T09:27:04.126Z,100.00
2019-04-26T09:30:00.483Z,100.00
2019-04-26T09:32:40.552Z,100.00
2019-04-26T09:35:11.402Z,100.00
2019-04-26T09:37:41.208Z,100.00
2019-04-26T09:40:18.508Z,100.00
2019-04-26T09:42:48.639Z,100.00
2019-04-26T09:45:52.101Z,100.00
2019-04-26T09:48:25.493Z,100.00
2019-04-26T09:50:57.045Z,100.00
2019-04-26T09:53:26.247Z,100.00
2019-04-26T09:55:55.385Z,100.00
2019-04-26T09:58:30.679Z,100.00
2019-04-26T10:00:58.938Z,100.00
2019-04-26T10:03:30.671Z,100.00
2019-04-26T10:06:00.393Z,100.00
2019-04-26T10:08:29.701Z,100.00
2019-04-26T10:10:58.844Z,100.00
2019-04-26T10:13:42.584Z,100.00
2019-04-26T10:16:27.300Z,100.00
2019-04-26T10:19:09.737Z,100.00
2019-04-26T10:21:40.206Z,100.00
2019-04-26T10:24:09.585Z,100.00
2019-04-26T10:26:38.758Z,100.00
2019-04-26T10:29:10.544Z,100.00
2019-04-26T10:31:39.938Z,100.00
2019-04-26T10:34:11.794Z,100.00
2019-04-26T10:36:40.448Z,100.00
2019-04-26T10:39:11.317Z,100.00
2019-04-26T10:41:40.532Z,100.00
2019-04-26T10:44:09.714Z,100.00
2019-04-26T10:46:38.861Z,100.00
2019-04-26T10:49:42.482Z,100.00
2019-04-26T10:52:33.235Z,100.00
2019-04-26T10:55:33.667Z,100.00
2019-04-26T10:58:24.952Z,100.00
2019-04-26T11:00:56.417Z,100.00
2019-04-26T11:03:25.679Z,100.00
2019-04-26T11:05:55.332Z,100.00
2019-04-26T11:08:24.603Z,100.00
2019-04-26T11:10:53.850Z,100.00
2019-04-26T11:13:23.081Z,100.00
2019-04-26T11:15:52.370Z,100.00
2019-04-26T11:18:27.254Z,100.00
2019-04-26T11:20:52.496Z,100.00
2019-04-26T11:23:21.656Z,100.00
2019-04-26T11:25:50.854Z,100.00
2019-04-26T11:28:21.518Z,100.00
2019-04-26T11:30:52.137Z,100.00
2019-04-26T11:33:22.065Z,100.00
2019-04-26T11:35:51.425Z,98.96
2019-04-26T11:38:21.819Z,100.00
2019-04-26T11:41:05.127Z,100.00
2019-04-26T11:43:22.057Z,100.00
2019-04-26T11:46:03.497Z,100.00
2019-04-26T11:48:25.376Z,100.00
2019-04-26T11:50:53.663Z,100.00
2019-04-26T11:53:24.402Z,100.00
2019-04-26T11:55:53.615Z,100.00
2019-04-26T11:58:23.690Z,100.00
2019-04-26T12:00:57.852Z,100.00
2019-04-26T12:03:27.049Z,98.48
2019-04-26T12:06:06.540Z,97.96
2019-04-26T12:08:53.332Z,95.52
2019-04-26T12:11:31.525Z,95.64
2019-04-26T12:13:59.516Z,94.71
2019-04-26T12:16:26.865Z,97.83
2019-04-26T12:18:58.298Z,93.21
2019-04-26T12:21:30.488Z,92.58
2019-04-26T12:23:58.792Z,88.84
2019-04-26T12:26:42.119Z,91.46
2019-04-26T12:29:00.957Z,92.89
2019-04-26T12:31:30.118Z,94.55
2019-04-26T12:33:59.325Z,96.17
2019-04-26T12:36:28.506Z,93.72
2019-04-26T12:38:58.259Z,93.46
2019-04-26T12:41:40.223Z,92.14
2019-04-26T12:44:03.283Z,92.25
2019-04-26T12:46:51.624Z,93.42
2019-04-26T12:49:24.210Z,93.99
2019-04-26T12:51:52.530Z,93.45
2019-04-26T12:54:21.681Z,93.06
2019-04-26T12:56:50.874Z,92.43
2019-04-26T12:59:22.539Z,90.98
2019-04-26T13:02:04.865Z,93.05
2019-04-26T13:04:35.550Z,89.79
2019-04-26T13:07:22.732Z,91.50
2019-04-26T13:09:44.037Z,88.66
2019-04-26T13:12:22.263Z,86.63
2019-04-26T13:14:58.269Z,85.92
2019-04-26T13:17:35.724Z,85.93
2019-04-26T13:20:04.974Z,87.38
2019-04-26T13:22:45.398Z,86.75
2019-04-26T13:25:15.409Z,85.07
2019-04-26T13:27:37.648Z,85.79
2019-04-26T13:30:10.660Z,86.19
2019-04-26T13:32:39.471Z,87.30
2019-04-26T13:35:11.513Z,87.59
2019-04-26T13:37:41.035Z,86.81
2019-04-26T13:40:10.795Z,89.86
2019-04-26T13:42:40.142Z,89.00
2019-04-26T13:45:26.879Z,89.29
2019-04-26T13:48:14.155Z,87.72
2019-04-26T13:50:49.490Z,85.11
2019-04-26T13:53:22.232Z,87.20
2019-04-26T13:55:50.301Z,88.08
2019-04-26T13:58:25.465Z,88.05
2019-04-26T14:00:53.085Z,87.41
2019-04-26T14:03:22.286Z,86.86
2019-04-26T14:05:51.488Z,87.12
2019-04-26T14:08:21.742Z,86.52
2019-04-26T14:10:51.415Z,89.10
2019-04-26T14:13:24.503Z,88.88
2019-04-26T14:15:52.806Z,87.55
2019-04-26T14:18:22.327Z,87.10
2019-04-26T14:20:54.796Z,85.95
2019-04-26T14:23:34.931Z,88.33
2019-04-26T14:26:12.882Z,85.13
2019-04-26T14:28:42.304Z,86.67
2019-04-26T14:31:12.327Z,86.07
2019-04-26T14:33:43.023Z,85.63
2019-04-26T14:36:18.096Z,84.40
2019-04-26T14:38:44.472Z,83.05
2019-04-26T14:41:22.001Z,86.14
2019-04-26T14:43:45.062Z,84.36
2019-04-26T14:46:16.366Z,84.37
2019-04-26T14:49:00.384Z,78.45
2019-04-26T14:51:18.577Z,78.78
2019-04-26T14:53:49.049Z,79.79
2019-04-26T14:56:18.174Z,80.33
2019-04-26T14:58:47.348Z,81.60
2019-04-26T15:01:36.686Z,78.69
2019-04-26T15:04:28.115Z,78.61
2019-04-26T15:06:58.012Z,78.73
2019-04-26T15:09:33.345Z,79.31
2019-04-26T15:12:01.359Z,79.41
2019-04-26T15:14:33.675Z,77.50
2019-04-26T15:17:02.867Z,77.83
2019-04-26T15:19:35.059Z,77.36
2019-04-26T15:22:04.958Z,79.46
2019-04-26T15:24:35.025Z,77.48
2019-04-26T15:27:04.786Z,78.09
2019-04-26T15:29:34.003Z,78.86
2019-04-26T15:32:05.275Z,79.89
2019-04-26T15:34:34.114Z,78.14
2019-04-26T15:37:03.381Z,77.53
2019-04-26T15:39:58.418Z,77.05
2019-04-26T15:42:40.469Z,75.49
2019-04-26T15:45:38.941Z,78.24
2019-04-26T15:48:33.932Z,78.66
2019-04-26T15:51:03.228Z,78.59
2019-04-26T15:53:33.205Z,77.24
2019-04-26T15:56:02.651Z,76.35
2019-04-26T15:58:31.791Z,76.22
2019-04-26T16:01:02.700Z,77.28
2019-04-26T16:03:32.789Z,79.22
2019-04-26T16:06:07.135Z,78.89
2019-04-26T16:08:42.426Z,80.68
2019-04-26T16:11:07.228Z,80.38
2019-04-26T16:13:35.445Z,81.29
2019-04-26T16:16:04.637Z,83.52
2019-04-26T16:18:33.860Z,82.67
2019-04-26T16:21:04.921Z,83.92
2019-04-26T16:23:41.269Z,84.00
2019-04-26T16:26:08.343Z,85.44
2019-04-26T16:28:51.542Z,84.13
2019-04-26T16:34:14.298Z,84.47
2019-04-26T16:36:45.253Z,83.61
2019-04-26T16:39:14.630Z,83.81
2019-04-26T16:41:45.194Z,84.74
2019-04-26T16:44:14.366Z,84.41
2019-04-26T16:46:44.055Z,84.86
2019-04-26T16:49:14.087Z,85.39
2019-04-26T16:51:43.729Z,85.69
2019-04-26T16:54:21.326Z,85.59
2019-04-26T16:56:44.074Z,86.09
2019-04-26T16:59:14.211Z,87.37
2019-04-26T17:01:47.421Z,88.81
2019-04-26T17:04:20.227Z,89.07
2019-04-26T17:06:46.497Z,90.18
2019-04-26T17:09:15.885Z,90.41
2019-04-26T17:09:51.135Z,84.46
2019-04-26T17:11:46.156Z,92.28
2019-04-26T17:14:15.356Z,92.84
2019-04-26T17:16:44.557Z,92.26
2019-04-26T17:19:13.882Z,93.07
2019-04-26T17:21:52.442Z,92.68
2019-04-26T17:24:47.209Z,94.33
2019-04-26T17:27:17.317Z,95.25
2019-04-26T17:29:46.553Z,95.75
2019-04-26T17:32:17.457Z,97.47
2019-04-26T17:34:46.950Z,98.07
2019-04-26T17:37:17.389Z,99.09
2019-04-26T17:39:47.536Z,99.13
2019-04-26T17:42:17.809Z,98.84
2019-04-26T17:44:46.975Z,97.67
2019-04-26T17:47:16.194Z,97.99
2019-04-26T17:49:45.366Z,98.59
2019-04-26T17:52:14.711Z,98.11
2019-04-26T17:54:49.279Z,98.63
2019-04-26T17:57:15.046Z,98.70
2019-04-26T17:59:47.790Z,98.69
2019-04-26T18:02:25.867Z,97.93
2019-04-26T18:04:58.100Z,96.64
2019-04-26T18:07:37.669Z,96.54
2019-04-26T18:09:48.820Z,96.90
2019-04-26T18:12:18.175Z,98.17
2019-04-26T18:14:47.385Z,97.48
2019-04-26T18:17:28.563Z,96.11
2019-04-26T18:20:19.999Z,94.61
2019-04-26T18:22:56.756Z,96.72
2019-04-26T18:25:28.528Z,97.91
2019-04-26T18:27:58.230Z,98.28
2019-04-26T18:30:27.708Z,99.02
2019-04-26T18:32:56.903Z,99.31
2019-04-26T18:35:26.085Z,100.00
2019-04-26T18:37:55.265Z,99.79
2019-04-26T18:40:24.577Z,99.64
2019-04-26T18:42:55.103Z,99.92
2019-04-26T18:45:28.765Z,100.00
2019-04-26T18:48:00.967Z,100.00
2019-04-26T18:50:28.517Z,100.00
2019-04-26T18:53:15.649Z,100.00
2019-04-26T18:55:45.254Z,100.00
2019-04-26T18:58:15.521Z,100.00
2019-04-26T19:00:45.452Z,100.00
2019-04-26T19:03:16.567Z,100.00
2019-04-26T19:05:45.890Z,100.00
2019-04-26T19:08:15.202Z,100.00
2019-04-26T19:10:44.449Z,100.00
2019-04-26T19:13:30.931Z,100.00
2019-04-26T19:16:10.476Z,100.00
2019-04-26T19:19:03.590Z,100.00
2019-04-26T19:21:40.572Z,100.00
2019-04-26T19:24:17.694Z,100.00
2019-04-26T19:26:44.136Z,100.00
2019-04-26T19:29:18.062Z,100.00
2019-04-26T19:31:43.191Z,100.00
2019-04-26T19:34:12.997Z,100.00
2019-04-26T19:36:42.182Z,100.00
2019-04-26T19:39:12.143Z,100.00
2019-04-26T19:41:42.044Z,100.00
2019-04-26T19:44:14.642Z,100.00
2019-04-26T19:47:12.259Z,100.00
2019-04-26T19:49:57.371Z,100.00
2019-04-26T19:52:39.879Z,100.00
2019-04-26T19:55:24.000Z,100.00
2019-04-26T19:57:59.375Z,100.00
2019-04-26T20:00:28.659Z,100.00
2019-04-26T20:02:57.877Z,100.00
2019-04-26T20:05:27.086Z,100.00
2019-04-26T20:07:58.485Z,100.00
2019-04-26T20:10:27.452Z,100.00
2019-04-26T20:12:56.946Z,100.00
2019-04-26T20:15:28.717Z,100.00
2019-04-26T20:18:03.688Z,100.00
2019-04-26T20:20:34.457Z,100.00
2019-04-26T20:23:07.836Z,100.00
2019-04-26T20:25:38.783Z,100.00
2019-04-26T20:28:07.970Z,100.00
2019-04-26T20:31:05.913Z,100.00
2019-04-26T20:33:31.196Z,100.00
2019-04-26T20:36:04.678Z,100.00
2019-04-26T20:38:35.867Z,100.00
2019-04-26T20:41:03.400Z,100.00
2019-04-26T20:43:36.811Z,100.00
2019-04-26T20:46:13.975Z,100.00
2019-04-26T20:48:35.066Z,100.00
2019-04-26T20:51:06.582Z,100.00
2019-04-26T20:53:40.971Z,100.00
2019-04-26T20:56:09.445Z,100.00
2019-04-26T20:58:42.047Z,100.00
2019-04-26T21:01:12.437Z,100.00
2019-04-26T21:03:42.912Z,100.00
2019-04-26T21:06:11.487Z,100.00
2019-04-26T21:08:42.409Z,100.00
2019-04-26T21:11:13.848Z,100.00
2019-04-26T21:13:43.364Z,100.00
2019-04-26T21:16:15.176Z,100.00
2019-04-26T21:18:44.495Z,100.00
2019-04-26T21:21:16.039Z,100.00
2019-04-26T21:23:46.814Z,100.00
2019-04-26T21:26:28.501Z,100.00
2019-04-26T21:29:20.587Z,100.00
2019-04-26T21:32:04.693Z,100.00
2019-04-26T21:34:35.705Z,100.00
2019-04-26T21:37:22.837Z,100.00
2019-04-26T21:40:16.889Z,100.00
2019-04-26T21:42:45.244Z,100.00
2019-04-26T21:45:14.574Z,100.00
2019-04-26T21:47:43.770Z,100.00
2019-04-26T21:50:13.627Z,100.00
2019-04-26T21:52:43.269Z,100.00
2019-04-26T21:55:14.230Z,100.00
2019-04-26T21:57:43.925Z,100.00
2019-04-26T22:02:46.734Z,100.00
2019-04-26T22:05:16.038Z,100.00
2019-04-26T22:07:47.760Z,100.00
2019-04-26T22:10:29.103Z,100.00
2019-04-26T22:13:01.449Z,100.00
2019-04-26T22:15:48.965Z,100.00
2019-04-26T22:18:21.661Z,100.00
2019-04-26T22:21:03.916Z,100.00
2019-04-26T22:24:05.935Z,100.00
2019-04-26T22:26:38.063Z,100.00
2019-04-26T22:29:08.148Z,100.00
2019-04-26T22:31:41.447Z,100.00
2019-04-26T22:34:09.727Z,100.00
2019-04-26T22:36:38.873Z,100.00
2019-04-26T22:39:15.666Z,100.00
2019-04-26T22:41:44.822Z,100.00
2019-04-26T22:44:20.534Z,100.00
2019-04-26T22:47:24.226Z,100.00
2019-04-26T22:49:53.396Z,100.00
2019-04-26T22:52:23.087Z,100.00
2019-04-26T22:54:53.899Z,100.00
2019-04-26T22:57:23.284Z,100.00
2019-04-26T22:59:53.506Z,100.00
2019-04-26T23:02:27.483Z,100.00
2019-04-26T23:04:56.129Z,100.00
2019-04-26T23:07:26.203Z,100.00
2019-04-26T23:09:55.780Z,100.00
2019-04-26T23:12:44.137Z,100.00
2019-04-26T23:15:33.233Z,100.00
2019-04-26T23:18:13.719Z,100.00
2019-04-26T23:20:56.217Z,100.00
2019-04-26T23:23:25.392Z,100.00
2019-04-26T23:25:54.592Z,100.00
2019-04-26T23:28:27.642Z,100.00
2019-04-26T23:30:54.871Z,100.00
2019-04-26T23:33:25.370Z,100.00
2019-04-26T23:35:54.544Z,100.00
2019-04-26T23:38:23.986Z,100.00
2019-04-26T23:40:53.304Z,100.00
2019-04-26T23:43:25.430Z,100.00
2019-04-26T23:45:53.466Z,100.00
2019-04-26T23:48:22.614Z,100.00
2019-04-26T23:50:53.718Z,100.00
2019-04-26T23:53:24.102Z,100.00
2019-04-26T23:55:53.414Z,100.00
2019-04-26T23:58:23.036Z,100.00
